Wahlen, Germany

12:30 PM CEST on September 20, 2014 (GMT +0200)
. | Change Station
CLOSE
Current Station
Personal Weather Station
Location: Schwalmtal, HESSEN
Elevation: 1224 ft
Nearby Weather Stations

Elev 1224 ft 50.71 °N, 9.34 °E | Updated 54 seconds ago

Mostly Cloudy
Mostly Cloudy
66.4 °F
Feels Like 66.4 °F
N
2.7
Wind Variable Wind from West
Gusts 4.0 mph

Today
High -- | Low -- °F
--% Chance of Precip.
Yesterday
High -- | Low -- °F
Precip. -- in
7:06 AM 7:26 PM
Waning Crescent, 13% visible
Pressure 29.95 in
Visibility 3.7 miles
Clouds Mostly Cloudy 700 ft
Dew Point 64 °F
Humidity 91%
Rainfall -999.00 in
Snow Depth Not available.
UV 1.8 out of 12
Pollen Not available.
Air Quality Not available.
Flu Activity Not available.
METAR ETHF 201020Z 09002KT 6000 BKN007 18/17 Q1014 GRN

More Conditions Fewer Conditions

Pressure 29.95 in
Visibility 3.7 miles
Clouds Mostly Cloudy 700 ft
Dew Point 64 °F
Humidity 91%
Rainfall -999.00 in
Snow Depth Not available.
UV 1.8 out of 12
Pollen Not available.
Air Quality Not available.
Flu Activity Not available.
METAR ETHF 201020Z 09002KT 6000 BKN007 18/17 Q1014 GRN

More Conditions Fewer Conditions

10-Day Weather Forecast

Almanac

Astronomy

Sep. 20, 2014 Rise Set
Actual Time 7:06 AM CEST 7:26 PM CEST
Civil Twilight 6:33 AM CEST 7:59 PM CEST
Nautical Twilight 5:54 AM CEST 8:38 PM CEST
Astronomical Twilight 5:13 AM CEST 9:19 PM CEST
Moon 3:11 AM CEST 5:36 PM CEST
Length of Visible Light 13h 26m
Length of Day
12h 20m
Tomorrow will be 3m 49s shorter.
Waning Crescent, 13% of the Moon is Illuminated
Today
Waning Crescent
Sep 24
New
Oct 1
First Quarter
Oct 8
Full
Oct 15
Last Quarter

Yesterday's Extremes

Country Highs Country Lows

Community

WunderPhotos

Upload Photos

1,754,827 photos uploaded!

WunderBlogs® & News

Nearby

Snow Depth

Not available.

Earthquake Activity

City Distance Mag. Time & Date
No recent earthquake activity has been reported nearby.
Minimum magnitude displayed is 2.5.

Coastal Water Temperatures

Place Temperature
No Stations Reporting

Nearby Weather Stations